Terminal Aerodrome Forecast
Issued by NWS

Home | Current Version | Previous Version | Text Only | Print | Product List | Glossary On
Versions: 1 2 3 4 5 6 7 8 9 10 11 12 13 14 15 16 17 18
000
FTPA31 PHFO 231140
TAFHTO
TAF
PHTO 231140Z 2312/2412 VRB06KT 5SM SHRA BR SCT015 BKN025 BKN035
      TEMPO 2312/2314 2SM SHRA BR SCT015 BKN025 OVC035
     FM231400 VRB06KT P6SM VCSH SCT015 BKN035 BKN045
      TEMPO 2314/2316 2SM SHRA BR SCT015 BKN025 OVC035
     FM231800 18007KT P6SM VCSH BKN035 OVC045
     FM232100 08009KT P6SM VCSH BKN035 OVC045=

USA.gov is the U.S. government's official web portal to all federal, state and local government web resources and services.